ITY160 LIRF-LOWS
Flight info
| Callsign | ITY160 |
|---|---|
| Flight time | 1h 7m |
| Altitude | 34000 |
| Route | TIBER Y106 GITOD M726 KOGOL N871 BADVI L725 UNKEN UNKEN2R |
| Aircraft | A320/M-SDE3FGHIRWY/LB1 |
Departure
| Time | 2026-05-06 19:19 |
|---|---|
| Airport | Rome–Fiumicino Leonardo da Vinci International Airport (LIRF) |
Arrival
| Time | 2026-05-06 20:26 |
|---|---|
| Airport | Salzburg Airport (LOWS) |
| Time | Latitude | Longitude | Altitude | Speed | Heading |
|---|---|---|---|---|---|
| 2026-05-06 18:44 | 41.79668 | 12.25821 | 16 ft | 0 kts | 115° |
| 2026-05-06 19:07 | 41.79675 | 12.25801 | 15 ft | 4 kts | 115° |
| 2026-05-06 19:07 | 41.79683 | 12.25774 | 17 ft | 4 kts | 88° |
| 2026-05-06 19:08 | 41.79674 | 12.25746 | 16 ft | 4 kts | 39° |
| 2026-05-06 19:08 | 41.79657 | 12.25731 | 14 ft | 0 kts | 25° |
| 2026-05-06 19:11 | 41.79658 | 12.25732 | 14 ft | 1 kts | 25° |
| 2026-05-06 19:12 | 41.79706 | 12.25762 | 15 ft | 9 kts | 25° |
| 2026-05-06 19:12 | 41.79762 | 12.25797 | 14 ft | 8 kts | 26° |
| 2026-05-06 19:12 | 41.79795 | 12.25817 | 15 ft | 8 kts | 24° |
| 2026-05-06 19:12 | 41.79898 | 12.25844 | 14 ft | 12 kts | 18° |
| 2026-05-06 19:13 | 41.79947 | 12.25869 | 16 ft | 11 kts | 24° |
| 2026-05-06 19:13 | 41.80020 | 12.25915 | 14 ft | 12 kts | 25° |
| 2026-05-06 19:13 | 41.80093 | 12.25960 | 14 ft | 11 kts | 25° |
| 2026-05-06 19:13 | 41.80200 | 12.26025 | 14 ft | 15 kts | 24° |
| 2026-05-06 19:14 | 41.80260 | 12.26062 | 16 ft | 14 kts | 25° |
| 2026-05-06 19:14 | 41.80340 | 12.26112 | 14 ft | 13 kts | 24° |
| 2026-05-06 19:14 | 41.80444 | 12.26170 | 16 ft | 18 kts | 15° |
| 2026-05-06 19:14 | 41.80534 | 12.26260 | 16 ft | 17 kts | 68° |
| 2026-05-06 19:15 | 41.80582 | 12.26436 | 16 ft | 22 kts | 70° |
| 2026-05-06 19:15 | 41.80636 | 12.26635 | 18 ft | 23 kts | 70° |
| 2026-05-06 19:15 | 41.80693 | 12.26836 | 15 ft | 21 kts | 70° |
| 2026-05-06 19:15 | 41.80740 | 12.26998 | 14 ft | 18 kts | 64° |
| 2026-05-06 19:16 | 41.80846 | 12.27022 | 13 ft | 17 kts | 341° |
| 2026-05-06 19:16 | 41.80871 | 12.27011 | 13 ft | 0 kts | 341° |
| 2026-05-06 19:16 | 41.80891 | 12.27001 | 13 ft | 7 kts | 341° |
| 2026-05-06 19:17 | 41.80933 | 12.26983 | 13 ft | 6 kts | 343° |
| 2026-05-06 19:17 | 41.80962 | 12.26954 | 13 ft | 5 kts | 287° |
| 2026-05-06 19:17 | 41.80958 | 12.26932 | 12 ft | 0 kts | 251° |
| 2026-05-06 19:18 | 41.80958 | 12.26930 | 12 ft | 3 kts | 251° |
| 2026-05-06 19:18 | 41.80881 | 12.26653 | 14 ft | 70 kts | 250° |
| 2026-05-06 19:18 | 41.80633 | 12.25753 | 17 ft | 133 kts | 250° |
| 2026-05-06 19:19 | 41.80260 | 12.24376 | 154 ft | 167 kts | 250° |
| 2026-05-06 19:19 | 41.79908 | 12.22967 | 894 ft | 161 kts | 245° |
| 2026-05-06 19:19 | 41.79490 | 12.21541 | 1444 ft | 172 kts | 243° |
| 2026-05-06 19:19 | 41.79247 | 12.19864 | 1867 ft | 198 kts | 264° |
| 2026-05-06 19:20 | 41.79223 | 12.17947 | 2418 ft | 209 kts | 264° |
| 2026-05-06 19:20 | 41.79147 | 12.16024 | 3294 ft | 202 kts | 253° |
| 2026-05-06 19:20 | 41.78548 | 12.14349 | 3996 ft | 202 kts | 226° |
| 2026-05-06 19:20 | 41.77512 | 12.13078 | 4795 ft | 201 kts | 220° |
| 2026-05-06 19:21 | 41.76469 | 12.11805 | 5567 ft | 203 kts | 221° |
| 2026-05-06 19:21 | 41.75442 | 12.10497 | 6358 ft | 204 kts | 222° |
| 2026-05-06 19:21 | 41.74411 | 12.09176 | 7103 ft | 205 kts | 221° |
| 2026-05-06 19:21 | 41.73360 | 12.07884 | 7870 ft | 205 kts | 221° |
| 2026-05-06 19:22 | 41.72118 | 12.06836 | 8272 ft | 223 kts | 192° |
| 2026-05-06 19:22 | 41.70537 | 12.06964 | 8613 ft | 247 kts | 159° |
| 2026-05-06 19:22 | 41.69125 | 12.08454 | 9023 ft | 273 kts | 131° |
| 2026-05-06 19:22 | 41.67938 | 12.10500 | 9764 ft | 281 kts | 129° |
| 2026-05-06 19:23 | 41.66973 | 12.12839 | 10323 ft | 301 kts | 109° |
| 2026-05-06 19:23 | 41.66815 | 12.15745 | 10586 ft | 331 kts | 81° |
| 2026-05-06 19:23 | 41.67608 | 12.18729 | 11015 ft | 348 kts | 68° |
| 2026-05-06 19:23 | 41.68583 | 12.21730 | 11681 ft | 355 kts | 68° |
| 2026-05-06 19:24 | 41.69581 | 12.24773 | 12429 ft | 359 kts | 68° |
| 2026-05-06 19:24 | 41.70577 | 12.27817 | 13142 ft | 364 kts | 68° |
| 2026-05-06 19:24 | 41.71594 | 12.30948 | 13844 ft | 369 kts | 68° |
| 2026-05-06 19:24 | 41.72615 | 12.34120 | 14492 ft | 373 kts | 68° |
| 2026-05-06 19:25 | 41.73645 | 12.37336 | 15102 ft | 378 kts | 68° |
| 2026-05-06 19:25 | 41.74684 | 12.40598 | 15743 ft | 382 kts | 69° |
| 2026-05-06 19:25 | 41.75730 | 12.43894 | 16379 ft | 386 kts | 69° |
| 2026-05-06 19:25 | 41.76787 | 12.47225 | 16983 ft | 391 kts | 69° |
| 2026-05-06 19:26 | 41.77894 | 12.50576 | 17583 ft | 396 kts | 64° |
| 2026-05-06 19:26 | 41.79457 | 12.53642 | 18175 ft | 403 kts | 49° |
| 2026-05-06 19:26 | 41.81553 | 12.56160 | 18703 ft | 408 kts | 34° |
| 2026-05-06 19:26 | 41.84070 | 12.57945 | 19224 ft | 411 kts | 19° |
| 2026-05-06 19:27 | 41.86815 | 12.58858 | 19752 ft | 412 kts | 4° |
| 2026-05-06 19:27 | 41.89677 | 12.59020 | 20296 ft | 413 kts | 358° |
| 2026-05-06 19:27 | 41.92573 | 12.59083 | 20855 ft | 417 kts | 358° |
| 2026-05-06 19:27 | 41.95488 | 12.59142 | 21378 ft | 421 kts | 358° |
| 2026-05-06 19:28 | 41.98438 | 12.59206 | 21910 ft | 425 kts | 358° |
| 2026-05-06 19:28 | 42.01419 | 12.59276 | 22438 ft | 429 kts | 358° |
| 2026-05-06 19:28 | 42.04380 | 12.59348 | 22950 ft | 432 kts | 358° |
| 2026-05-06 19:28 | 42.07399 | 12.59427 | 23458 ft | 436 kts | 358° |
| 2026-05-06 19:29 | 42.10447 | 12.59513 | 23880 ft | 440 kts | 358° |
| 2026-05-06 19:29 | 42.13514 | 12.59600 | 24289 ft | 442 kts | 358° |
| 2026-05-06 19:29 | 42.16611 | 12.59686 | 24690 ft | 445 kts | 358° |
| 2026-05-06 19:29 | 42.19720 | 12.59769 | 25084 ft | 448 kts | 358° |
| 2026-05-06 19:30 | 42.22845 | 12.59728 | 25459 ft | 448 kts | 351° |
| 2026-05-06 19:30 | 42.25914 | 12.59098 | 25819 ft | 446 kts | 342° |
| 2026-05-06 19:30 | 42.28831 | 12.57877 | 26189 ft | 443 kts | 334° |
| 2026-05-06 19:30 | 42.31717 | 12.56370 | 26576 ft | 445 kts | 334° |
| 2026-05-06 19:31 | 42.34616 | 12.54856 | 27006 ft | 446 kts | 334° |
| 2026-05-06 19:31 | 42.37519 | 12.53344 | 27434 ft | 447 kts | 334° |
| 2026-05-06 19:31 | 42.43362 | 12.50303 | 28159 ft | 451 kts | 333° |
| 2026-05-06 19:32 | 42.46306 | 12.48769 | 28499 ft | 454 kts | 333° |
| 2026-05-06 19:32 | 42.49229 | 12.47242 | 28827 ft | 456 kts | 333° |
| 2026-05-06 19:32 | 42.52202 | 12.45689 | 29160 ft | 458 kts | 333° |
| 2026-05-06 19:32 | 42.55190 | 12.44127 | 29491 ft | 461 kts | 333° |
| 2026-05-06 19:33 | 42.58189 | 12.42562 | 29815 ft | 462 kts | 333° |
| 2026-05-06 19:33 | 42.61203 | 12.40986 | 30113 ft | 464 kts | 333° |
| 2026-05-06 19:33 | 42.64229 | 12.39395 | 30360 ft | 466 kts | 333° |
| 2026-05-06 19:33 | 42.67220 | 12.37821 | 30602 ft | 467 kts | 333° |
| 2026-05-06 19:34 | 42.70268 | 12.36217 | 30806 ft | 469 kts | 333° |
| 2026-05-06 19:34 | 42.73316 | 12.34610 | 31033 ft | 471 kts | 332° |
| 2026-05-06 19:34 | 42.76368 | 12.33000 | 31324 ft | 471 kts | 332° |
| 2026-05-06 19:34 | 42.79429 | 12.31386 | 31596 ft | 472 kts | 332° |
| 2026-05-06 19:35 | 42.82502 | 12.29795 | 31860 ft | 473 kts | 333° |
| 2026-05-06 19:35 | 42.85593 | 12.28262 | 32159 ft | 473 kts | 333° |
| 2026-05-06 19:35 | 42.88702 | 12.26764 | 32456 ft | 474 kts | 334° |
| 2026-05-06 19:35 | 42.91811 | 12.25283 | 32751 ft | 473 kts | 334° |
| 2026-05-06 19:36 | 42.94923 | 12.23797 | 33047 ft | 473 kts | 333° |
| 2026-05-06 19:36 | 42.98029 | 12.22295 | 33347 ft | 473 kts | 333° |
| 2026-05-06 19:36 | 43.01126 | 12.20779 | 33673 ft | 472 kts | 333° |
| 2026-05-06 19:36 | 43.04173 | 12.19272 | 33938 ft | 472 kts | 333° |
| 2026-05-06 19:37 | 43.10301 | 12.16227 | 33982 ft | 466 kts | 332° |
| 2026-05-06 19:37 | 43.16392 | 12.13196 | 33984 ft | 465 kts | 332° |
| 2026-05-06 19:38 | 43.22481 | 12.10167 | 33979 ft | 464 kts | 333° |
| 2026-05-06 19:38 | 43.28543 | 12.07155 | 33976 ft | 463 kts | 333° |
| 2026-05-06 19:39 | 43.34612 | 12.04131 | 34003 ft | 464 kts | 332° |
| 2026-05-06 19:39 | 43.40644 | 12.01113 | 33998 ft | 464 kts | 333° |
| 2026-05-06 19:40 | 43.46701 | 11.98083 | 33987 ft | 463 kts | 333° |
| 2026-05-06 19:40 | 43.52757 | 11.95031 | 33975 ft | 462 kts | 333° |
| 2026-05-06 19:41 | 43.58805 | 11.91983 | 33964 ft | 462 kts | 333° |
| 2026-05-06 19:41 | 43.64809 | 11.88963 | 33969 ft | 462 kts | 333° |
| 2026-05-06 19:42 | 43.70843 | 11.85922 | 33961 ft | 461 kts | 333° |
| 2026-05-06 19:42 | 43.76887 | 11.82933 | 33947 ft | 464 kts | 337° |
| 2026-05-06 19:43 | 43.83314 | 11.81349 | 33969 ft | 472 kts | 345° |
| 2026-05-06 19:43 | 43.89788 | 11.80087 | 33927 ft | 472 kts | 345° |
| 2026-05-06 19:44 | 43.96304 | 11.78796 | 33921 ft | 474 kts | 345° |
| 2026-05-06 19:44 | 44.02842 | 11.77495 | 33945 ft | 475 kts | 344° |
| 2026-05-06 19:45 | 44.09398 | 11.76193 | 33905 ft | 477 kts | 344° |
| 2026-05-06 19:45 | 44.15975 | 11.74883 | 33903 ft | 478 kts | 344° |
| 2026-05-06 19:46 | 44.22581 | 11.73567 | 33905 ft | 479 kts | 345° |
| 2026-05-06 19:46 | 44.29188 | 11.72244 | 33906 ft | 480 kts | 345° |
| 2026-05-06 19:47 | 44.35800 | 11.70911 | 33913 ft | 480 kts | 344° |
| 2026-05-06 19:47 | 44.42417 | 11.69571 | 33906 ft | 480 kts | 345° |
| 2026-05-06 19:48 | 44.49002 | 11.68242 | 33907 ft | 481 kts | 345° |
| 2026-05-06 19:48 | 44.55637 | 11.66899 | 33892 ft | 482 kts | 345° |
| 2026-05-06 19:49 | 44.62283 | 11.65546 | 33884 ft | 482 kts | 345° |
| 2026-05-06 19:49 | 44.68930 | 11.64194 | 33893 ft | 482 kts | 345° |
| 2026-05-06 19:50 | 44.75524 | 11.62854 | 33896 ft | 481 kts | 345° |
| 2026-05-06 19:50 | 44.82153 | 11.61504 | 33903 ft | 481 kts | 345° |
| 2026-05-06 19:51 | 44.88802 | 11.60277 | 33902 ft | 482 kts | 346° |
| 2026-05-06 19:51 | 44.95467 | 11.59168 | 33900 ft | 482 kts | 346° |
| 2026-05-06 19:52 | 45.02144 | 11.58057 | 33901 ft | 482 kts | 346° |
| 2026-05-06 19:52 | 45.08776 | 11.56892 | 33912 ft | 482 kts | 346° |
| 2026-05-06 19:53 | 45.15452 | 11.55710 | 33904 ft | 483 kts | 345° |
| 2026-05-06 19:53 | 45.22135 | 11.54534 | 33909 ft | 485 kts | 345° |
| 2026-05-06 19:54 | 45.28837 | 11.53350 | 33888 ft | 486 kts | 345° |
| 2026-05-06 19:54 | 45.35550 | 11.52178 | 33882 ft | 487 kts | 346° |
| 2026-05-06 19:55 | 45.42281 | 11.50995 | 33883 ft | 487 kts | 346° |
| 2026-05-06 19:55 | 45.49027 | 11.49796 | 33883 ft | 488 kts | 346° |
| 2026-05-06 19:56 | 45.55731 | 11.48609 | 33888 ft | 488 kts | 346° |
| 2026-05-06 19:56 | 45.62468 | 11.47409 | 33905 ft | 488 kts | 346° |
| 2026-05-06 19:57 | 45.69203 | 11.46211 | 33911 ft | 488 kts | 346° |
| 2026-05-06 19:57 | 45.75949 | 11.45012 | 33919 ft | 487 kts | 346° |
| 2026-05-06 19:58 | 45.82686 | 11.43798 | 33928 ft | 487 kts | 346° |
| 2026-05-06 19:58 | 45.89378 | 11.42589 | 33935 ft | 487 kts | 345° |
| 2026-05-06 19:59 | 45.96112 | 11.41367 | 33932 ft | 487 kts | 346° |
| 2026-05-06 19:59 | 46.02843 | 11.40149 | 33936 ft | 487 kts | 346° |
| 2026-05-06 20:00 | 46.09524 | 11.38939 | 33927 ft | 487 kts | 346° |
| 2026-05-06 20:00 | 46.16255 | 11.37723 | 33925 ft | 487 kts | 346° |
| 2026-05-06 20:01 | 46.22977 | 11.36506 | 33920 ft | 487 kts | 346° |
| 2026-05-06 20:01 | 46.29703 | 11.35279 | 33902 ft | 487 kts | 346° |
| 2026-05-06 20:02 | 46.36419 | 11.34060 | 33908 ft | 487 kts | 346° |
| 2026-05-06 20:02 | 46.41999 | 11.33033 | 33912 ft | 486 kts | 346° |
| 2026-05-06 20:03 | 46.48785 | 11.32457 | 33951 ft | 495 kts | 359° |
| 2026-05-06 20:03 | 46.55659 | 11.33192 | 33933 ft | 495 kts | 359° |
| 2026-05-06 20:04 | 46.62523 | 11.33897 | 33920 ft | 494 kts | 359° |
| 2026-05-06 20:04 | 46.69342 | 11.34583 | 33909 ft | 493 kts | 359° |
| 2026-05-06 20:05 | 46.76199 | 11.35289 | 33896 ft | 493 kts | 359° |
| 2026-05-06 20:05 | 46.83034 | 11.36013 | 33877 ft | 492 kts | 360° |
| 2026-05-06 20:06 | 46.89844 | 11.36760 | 33891 ft | 490 kts | 359° |
| 2026-05-06 20:06 | 46.96650 | 11.37524 | 33874 ft | 489 kts | 360° |
| 2026-05-06 20:07 | 47.03392 | 11.38249 | 33642 ft | 490 kts | 359° |
| 2026-05-06 20:07 | 47.06803 | 11.38591 | 33216 ft | 490 kts | 359° |
| 2026-05-06 20:07 | 47.10216 | 11.38927 | 32814 ft | 491 kts | 359° |
| 2026-05-06 20:08 | 47.13630 | 11.39260 | 32433 ft | 492 kts | 359° |
| 2026-05-06 20:08 | 47.17048 | 11.39589 | 32036 ft | 493 kts | 359° |
| 2026-05-06 20:08 | 47.20485 | 11.39921 | 31652 ft | 494 kts | 359° |
| 2026-05-06 20:08 | 47.23911 | 11.40237 | 31292 ft | 492 kts | 358° |
| 2026-05-06 20:09 | 47.27312 | 11.40414 | 30909 ft | 487 kts | 356° |
| 2026-05-06 20:09 | 47.30685 | 11.40453 | 30539 ft | 483 kts | 354° |
| 2026-05-06 20:09 | 47.34028 | 11.40405 | 30175 ft | 479 kts | 353° |
| 2026-05-06 20:09 | 47.37362 | 11.40323 | 29784 ft | 477 kts | 353° |
| 2026-05-06 20:10 | 47.40672 | 11.40249 | 29358 ft | 474 kts | 353° |
| 2026-05-06 20:10 | 47.43923 | 11.40186 | 28902 ft | 472 kts | 354° |
| 2026-05-06 20:10 | 47.47193 | 11.40134 | 28341 ft | 467 kts | 355° |
| 2026-05-06 20:10 | 47.50423 | 11.40094 | 27802 ft | 461 kts | 355° |
| 2026-05-06 20:11 | 47.53626 | 11.40231 | 27260 ft | 461 kts | 4° |
| 2026-05-06 20:11 | 47.56742 | 11.41344 | 26739 ft | 461 kts | 19° |
| 2026-05-06 20:11 | 47.59591 | 11.43477 | 26235 ft | 459 kts | 33° |
| 2026-05-06 20:11 | 47.62024 | 11.46499 | 25733 ft | 454 kts | 48° |
| 2026-05-06 20:12 | 47.63912 | 11.50196 | 25238 ft | 446 kts | 62° |
| 2026-05-06 20:12 | 47.65171 | 11.54339 | 24774 ft | 436 kts | 76° |
| 2026-05-06 20:12 | 47.66039 | 11.58562 | 24261 ft | 432 kts | 77° |
| 2026-05-06 20:12 | 47.66910 | 11.62846 | 23556 ft | 433 kts | 76° |
| 2026-05-06 20:13 | 47.67782 | 11.67139 | 22739 ft | 435 kts | 76° |
| 2026-05-06 20:13 | 47.68655 | 11.71441 | 21941 ft | 436 kts | 76° |
| 2026-05-06 20:13 | 47.69530 | 11.75759 | 21148 ft | 436 kts | 76° |
| 2026-05-06 20:13 | 47.70401 | 11.80077 | 20391 ft | 436 kts | 76° |
| 2026-05-06 20:14 | 47.71247 | 11.84403 | 19631 ft | 436 kts | 77° |
| 2026-05-06 20:14 | 47.72062 | 11.88719 | 18975 ft | 433 kts | 77° |
| 2026-05-06 20:14 | 47.72858 | 11.93028 | 18334 ft | 432 kts | 78° |
| 2026-05-06 20:14 | 47.73601 | 11.97294 | 17635 ft | 429 kts | 79° |
| 2026-05-06 20:15 | 47.74256 | 12.01603 | 16915 ft | 427 kts | 81° |
| 2026-05-06 20:15 | 47.74848 | 12.05922 | 16222 ft | 425 kts | 82° |
| 2026-05-06 20:15 | 47.75405 | 12.10203 | 15711 ft | 418 kts | 82° |
| 2026-05-06 20:15 | 47.75944 | 12.14372 | 15227 ft | 400 kts | 82° |
| 2026-05-06 20:16 | 47.76468 | 12.18333 | 14763 ft | 382 kts | 82° |
| 2026-05-06 20:16 | 47.76984 | 12.22130 | 14305 ft | 370 kts | 81° |
| 2026-05-06 20:16 | 47.77497 | 12.25871 | 13854 ft | 368 kts | 81° |
| 2026-05-06 20:16 | 47.78012 | 12.29596 | 13381 ft | 366 kts | 81° |
| 2026-05-06 20:17 | 47.78518 | 12.33248 | 12874 ft | 364 kts | 81° |
| 2026-05-06 20:17 | 47.79077 | 12.36910 | 12367 ft | 363 kts | 74° |
| 2026-05-06 20:17 | 47.80119 | 12.40344 | 11872 ft | 364 kts | 65° |
| 2026-05-06 20:17 | 47.81249 | 12.43673 | 11265 ft | 355 kts | 65° |
| 2026-05-06 20:18 | 47.82350 | 12.46903 | 10666 ft | 344 kts | 65° |
| 2026-05-06 20:18 | 47.83417 | 12.50030 | 10085 ft | 335 kts | 65° |
| 2026-05-06 20:18 | 47.84459 | 12.53086 | 9539 ft | 325 kts | 65° |
| 2026-05-06 20:18 | 47.85459 | 12.56025 | 9069 ft | 313 kts | 64° |
| 2026-05-06 20:19 | 47.86419 | 12.58854 | 8728 ft | 298 kts | 64° |
| 2026-05-06 20:19 | 47.87349 | 12.61606 | 8058 ft | 297 kts | 63° |
| 2026-05-06 20:19 | 47.88261 | 12.64306 | 7427 ft | 294 kts | 62° |
| 2026-05-06 20:19 | 47.89174 | 12.67020 | 6801 ft | 292 kts | 61° |
| 2026-05-06 20:20 | 47.90083 | 12.69720 | 6199 ft | 289 kts | 60° |
| 2026-05-06 20:20 | 47.90959 | 12.72327 | 5777 ft | 280 kts | 60° |
| 2026-05-06 20:20 | 47.91829 | 12.74912 | 5548 ft | 272 kts | 59° |
| 2026-05-06 20:20 | 47.92658 | 12.77391 | 5407 ft | 263 kts | 59° |
| 2026-05-06 20:21 | 47.93474 | 12.79825 | 5133 ft | 260 kts | 59° |
| 2026-05-06 20:21 | 47.94282 | 12.82227 | 4867 ft | 256 kts | 58° |
| 2026-05-06 20:21 | 47.95051 | 12.84530 | 4584 ft | 246 kts | 58° |
| 2026-05-06 20:21 | 47.95691 | 12.86847 | 4286 ft | 241 kts | 79° |
| 2026-05-06 20:22 | 47.95446 | 12.89240 | 4079 ft | 231 kts | 121° |
| 2026-05-06 20:22 | 47.94392 | 12.90824 | 3977 ft | 204 kts | 161° |
| 2026-05-06 20:22 | 47.93170 | 12.91625 | 3979 ft | 183 kts | 166° |
| 2026-05-06 20:22 | 47.92041 | 12.92345 | 3898 ft | 171 kts | 167° |
| 2026-05-06 20:23 | 47.90969 | 12.93025 | 3724 ft | 164 kts | 167° |
| 2026-05-06 20:23 | 47.89942 | 12.93676 | 3562 ft | 158 kts | 168° |
| 2026-05-06 20:23 | 47.88940 | 12.94311 | 3344 ft | 155 kts | 168° |
| 2026-05-06 20:23 | 47.87966 | 12.94928 | 3141 ft | 153 kts | 168° |
| 2026-05-06 20:24 | 47.86992 | 12.95544 | 2934 ft | 152 kts | 167° |
| 2026-05-06 20:24 | 47.86018 | 12.96161 | 2731 ft | 152 kts | 166° |
| 2026-05-06 20:24 | 47.85062 | 12.96769 | 2514 ft | 149 kts | 165° |
| 2026-05-06 20:24 | 47.84116 | 12.97364 | 2274 ft | 147 kts | 166° |
| 2026-05-06 20:25 | 47.83177 | 12.97956 | 2085 ft | 145 kts | 162° |
| 2026-05-06 20:25 | 47.82255 | 12.98558 | 1900 ft | 144 kts | 158° |
| 2026-05-06 20:25 | 47.81340 | 12.99130 | 1697 ft | 142 kts | 158° |
| 2026-05-06 20:25 | 47.80429 | 12.99709 | 1484 ft | 143 kts | 158° |
| 2026-05-06 20:26 | 47.79554 | 13.00252 | 1423 ft | 118 kts | 156° |
| 2026-05-06 20:26 | 47.78987 | 13.00608 | 1420 ft | 47 kts | 156° |
| 2026-05-06 20:26 | 47.78748 | 13.00761 | 1421 ft | 30 kts | 158° |
| 2026-05-06 20:26 | 47.78604 | 13.00844 | 1421 ft | 16 kts | 171° |
| 2026-05-06 20:27 | 47.78539 | 13.00753 | 1423 ft | 13 kts | 247° |
| 2026-05-06 20:27 | 47.78554 | 13.00624 | 1422 ft | 14 kts | 319° |
| 2026-05-06 20:27 | 47.78646 | 13.00564 | 1420 ft | 15 kts | 328° |
| 2026-05-06 20:27 | 47.78702 | 13.00490 | 1421 ft | 10 kts | 351° |
| 2026-05-06 20:28 | 47.78777 | 13.00480 | 1421 ft | 12 kts | 344° |
| 2026-05-06 20:28 | 47.78859 | 13.00427 | 1423 ft | 14 kts | 334° |
| 2026-05-06 20:28 | 47.78943 | 13.00358 | 1420 ft | 14 kts | 310° |
| 2026-05-06 20:28 | 47.78956 | 13.00222 | 1422 ft | 14 kts | 272° |
| 2026-05-06 20:29 | 47.79015 | 13.00118 | 1422 ft | 15 kts | 337° |
| 2026-05-06 20:29 | 47.79074 | 13.00068 | 1422 ft | 8 kts | 310° |
| 2026-05-06 20:29 | 47.79086 | 12.99994 | 1422 ft | 7 kts | 281° |
| 2026-05-06 20:29 | 47.79090 | 12.99962 | 1422 ft | 0 kts | 282° |